Time;durP1;ratioP1;P1;durP2;ratioP2;P2;SDS_P1;SDS_P2;PMS_P1;PMS_P2;Temp;Humidity;BMP_temperature;BMP_pressure;BME280_temperature;BME280_humidity;BME280_pressure;Samples;Min_cycle;Max_cycle;Signal;HPM_P1;HPM_P2
2022/08/06 00:01:39;;;;;;;0.50;0.50;;;12.00;99.90;;;;;;5053390;28;20290;-80
2022/08/06 00:04:04;;;;;;;0.50;0.50;;;12.00;99.90;;;;;;5053740;28;20209;-81
2022/08/06 00:06:31;;;;;;;0.50;0.50;;;12.00;99.90;;;;;;5053399;28;20293;-80
2022/08/06 00:08:56;;;;;;;0.60;0.60;;;12.00;99.90;;;;;;5055006;28;20194;-81
2022/08/06 00:11:22;;;;;;;0.50;0.50;;;12.00;99.90;;;;;;5053537;28;20205;-80
2022/08/06 00:13:48;;;;;;;0.40;0.40;;;11.80;99.90;;;;;;5053667;28;20267;-80
2022/08/06 00:16:13;;;;;;;0.50;0.50;;;11.80;99.90;;;;;;5053585;28;20193;-80
2022/08/06 00:18:39;;;;;;;0.52;0.52;;;11.80;99.90;;;;;;5054666;28;20201;-80
2022/08/06 00:21:05;;;;;;;0.60;0.60;;;11.70;99.90;;;;;;5049924;28;20222;-80
2022/08/06 00:23:34;;;;;;;0.50;0.50;;;11.60;99.90;;;;;;5034608;28;20198;-87
2022/08/06 00:25:59;;;;;;;0.60;0.60;;;11.60;99.90;;;;;;5033330;28;20296;-80
2022/08/06 00:28:25;;;;;;;0.50;0.50;;;11.60;99.90;;;;;;5047588;28;20320;-81
2022/08/06 00:30:51;;;;;;;0.60;0.60;;;11.40;99.90;;;;;;5053359;28;20193;-80
2022/08/06 00:33:17;;;;;;;0.60;0.60;;;11.40;99.90;;;;;;5053498;28;20201;-81
2022/08/06 00:35:44;;;;;;;0.50;0.50;;;11.30;99.90;;;;;;5053137;28;20280;-81
2022/08/06 00:38:10;;;;;;;0.52;0.52;;;11.20;99.90;;;;;;5053077;28;20194;-81
2022/08/06 00:40:37;;;;;;;0.70;0.70;;;11.20;99.90;;;;;;5054146;28;20648;-81
2022/08/06 00:43:04;;;;;;;0.60;0.60;;;11.10;99.90;;;;;;5052675;28;20649;-81
2022/08/06 00:45:31;;;;;;;0.50;0.50;;;11.00;99.90;;;;;;5054379;28;20669;-81
2022/08/06 00:47:57;;;;;;;0.60;0.60;;;11.00;99.90;;;;;;5053000;28;20618;-80
2022/08/06 00:50:23;;;;;;;0.60;0.60;;;10.90;99.90;;;;;;5052674;28;20232;-80
2022/08/06 00:52:48;;;;;;;0.57;0.57;;;10.80;99.90;;;;;;5052927;28;20229;-80
2022/08/06 00:55:14;;;;;;;0.60;0.60;;;10.80;99.90;;;;;;5053940;28;20209;-80
2022/08/06 00:57:40;;;;;;;0.60;0.60;;;10.70;99.90;;;;;;5053913;28;20278;-80
2022/08/06 01:00:07;;;;;;;0.52;0.52;;;10.70;99.90;;;;;;5053831;28;20243;-80
2022/08/06 01:02:34;;;;;;;0.80;0.80;;;10.70;99.90;;;;;;5052328;28;20201;-80
2022/08/06 01:05:00;;;;;;;0.70;0.70;;;10.70;99.90;;;;;;5051941;28;20755;-80
2022/08/06 01:07:25;;;;;;;0.55;0.55;;;10.60;99.90;;;;;;5053581;28;20194;-78
2022/08/06 01:09:51;;;;;;;0.50;0.50;;;10.60;99.90;;;;;;5052521;28;20197;-80
2022/08/06 01:12:17;;;;;;;0.60;0.60;;;10.70;99.90;;;;;;5052550;28;20655;-80
2022/08/06 01:14:44;;;;;;;0.55;0.55;;;10.80;99.90;;;;;;5052139;28;20212;-80
2022/08/06 01:17:42;;;;;;;0.60;0.60;;;10.70;99.90;;;;;;5052356;28;20674;-81
2022/08/06 01:20:25;;;;;;;0.50;0.50;;;10.60;99.90;;;;;;5044319;28;20225;-82
2022/08/06 01:23:09;;;;;;;3.92;1.98;;;10.60;99.90;;;;;;5052167;28;20664;-81
2022/08/06 01:25:40;;;;;;;0.50;0.50;;;10.50;99.90;;;;;;5052242;28;20577;-81
2022/08/06 01:28:53;;;;;;;0.70;0.70;;;10.50;99.90;;;;;;5051640;28;20707;-81
2022/08/06 01:31:58;;;;;;;0.50;0.50;;;10.50;99.90;;;;;;5034276;28;20744;-81
2022/08/06 01:34:54;;;;;;;0.50;0.50;;;10.50;99.90;;;;;;5049475;28;20283;-81
2022/08/06 01:37:29;;;;;;;0.60;0.60;;;10.50;99.90;;;;;;5050265;28;20221;-82
2022/08/06 01:40:00;;;;;;;0.50;0.50;;;10.50;99.90;;;;;;5050761;28;20629;-82
2022/08/06 01:42:28;;;;;;;0.60;0.60;;;10.50;99.90;;;;;;5050658;28;20232;-78
2022/08/06 01:45:00;;;;;;;0.50;0.50;;;10.60;99.90;;;;;;5050587;28;20320;-79
2022/08/06 01:47:30;;;;;;;0.60;0.60;;;10.60;99.90;;;;;;5050422;28;20197;-80
2022/08/06 01:50:02;;;;;;;0.50;0.50;;;10.60;99.90;;;;;;5050552;28;20199;-80
2022/08/06 01:52:33;;;;;;;0.50;0.50;;;10.70;99.90;;;;;;5050479;28;20722;-80
2022/08/06 01:55:01;;;;;;;0.50;0.50;;;10.70;99.90;;;;;;5050273;28;20563;-80
2022/08/06 01:57:31;;;;;;;0.60;0.60;;;10.80;99.90;;;;;;5036466;28;20206;-80
2022/08/06 01:59:57;;;;;;;0.45;0.45;;;10.80;99.90;;;;;;5030565;28;20225;-80
2022/08/06 02:02:28;;;;;;;0.55;0.55;;;10.90;99.90;;;;;;5028617;28;20237;-79
2022/08/06 02:04:57;;;;;;;0.60;0.60;;;10.90;99.90;;;;;;5044796;28;20214;-80
2022/08/06 02:07:27;;;;;;;0.60;0.60;;;11.00;99.90;;;;;;5032583;28;20198;-80
2022/08/06 02:09:53;;;;;;;0.60;0.60;;;11.10;99.90;;;;;;5048032;28;20252;-80
2022/08/06 02:12:23;;;;;;;0.60;0.60;;;11.20;99.90;;;;;;5050194;28;20213;-80
2022/08/06 02:14:55;;;;;;;0.50;0.50;;;11.30;99.90;;;;;;5031286;28;20313;-80
2022/08/06 02:17:29;;;;;;;0.50;0.50;;;11.30;99.90;;;;;;5031580;28;20669;-80
2022/08/06 02:20:00;;;;;;;0.60;0.60;;;11.40;99.90;;;;;;5031401;28;20244;-81
2022/08/06 02:22:28;;;;;;;0.50;0.50;;;11.50;99.90;;;;;;5031186;28;20197;-80
2022/08/06 02:24:56;;;;;;;0.50;0.50;;;11.50;99.90;;;;;;5032557;28;20186;-81
2022/08/06 02:27:23;;;;;;;0.50;0.50;;;11.50;99.90;;;;;;5036887;28;20201;-80
2022/08/06 02:29:52;;;;;;;0.60;0.60;;;11.50;99.90;;;;;;5050894;28;20733;-80
2022/08/06 02:32:17;;;;;;;0.60;0.60;;;11.40;99.90;;;;;;5052363;28;20221;-81
2022/08/06 02:34:43;;;;;;;0.60;0.60;;;11.30;99.90;;;;;;5051705;28;20240;-80
2022/08/06 02:37:17;;;;;;;0.50;0.50;;;11.30;99.90;;;;;;5051164;28;20549;-80
2022/08/06 02:39:57;;;;;;;0.50;0.50;;;11.30;99.90;;;;;;5050630;28;20194;-80
2022/08/06 02:42:30;;;;;;;0.55;0.55;;;11.20;99.90;;;;;;5050508;28;20197;-82
2022/08/06 02:45:12;;;;;;;0.75;0.75;;;11.20;99.90;;;;;;5050799;28;20593;-80
2022/08/06 02:47:50;;;;;;;0.75;0.75;;;11.00;99.90;;;;;;5051818;28;20714;-81
2022/08/06 02:50:19;;;;;;;0.40;0.40;;;11.00;99.90;;;;;;5051851;28;20194;-80
2022/08/06 02:52:54;;;;;;;1.42;1.02;;;10.80;99.90;;;;;;5050568;28;20545;-80
2022/08/06 02:55:25;;;;;;;0.60;0.60;;;10.70;99.90;;;;;;5051555;28;20267;-81
2022/08/06 02:58:09;;;;;;;0.57;0.57;;;10.60;99.90;;;;;;5050501;28;20194;-81
2022/08/06 03:00:38;;;;;;;0.50;0.50;;;10.50;99.90;;;;;;5047241;28;20194;-80
2022/08/06 03:03:07;;;;;;;1.08;0.98;;;10.40;99.90;;;;;;5049421;28;20194;-80
2022/08/06 03:05:35;;;;;;;0.50;0.50;;;10.30;99.90;;;;;;5050348;28;20605;-80
2022/08/06 03:08:01;;;;;;;0.60;0.60;;;10.10;99.90;;;;;;5050324;28;20231;-81
2022/08/06 03:10:29;;;;;;;0.60;0.60;;;10.00;99.90;;;;;;5050015;28;20206;-81
2022/08/06 03:12:57;;;;;;;0.50;0.50;;;9.90;99.90;;;;;;5050277;28;20208;-80
2022/08/06 03:15:24;;;;;;;0.52;0.52;;;9.90;99.90;;;;;;5050036;28;20213;-80
2022/08/06 03:17:55;;;;;;;0.50;0.50;;;9.90;99.90;;;;;;5051530;28;20240;-85
2022/08/06 03:20:21;;;;;;;0.60;0.60;;;9.80;99.90;;;;;;5049935;28;20557;-81
2022/08/06 03:22:51;;;;;;;0.60;0.60;;;9.80;99.90;;;;;;5050127;28;20250;-80
2022/08/06 03:25:18;;;;;;;0.50;0.50;;;9.90;99.90;;;;;;5051435;28;20193;-80
2022/08/06 03:27:46;;;;;;;0.60;0.60;;;9.80;99.90;;;;;;5051260;28;20233;-80
2022/08/06 03:30:17;;;;;;;0.90;0.85;;;9.80;99.90;;;;;;5056829;28;20197;-80
2022/08/06 03:32:45;;;;;;;0.60;0.60;;;9.70;99.90;;;;;;5057894;28;20571;-80
2022/08/06 03:35:11;;;;;;;0.75;0.75;;;9.80;99.90;;;;;;5056691;28;20757;-80
2022/08/06 03:37:38;;;;;;;0.60;0.60;;;9.90;99.90;;;;;;5056639;28;20223;-81
2022/08/06 03:40:05;;;;;;;0.60;0.60;;;9.90;99.90;;;;;;5056720;28;20200;-81
2022/08/06 03:42:31;;;;;;;0.60;0.60;;;9.90;99.90;;;;;;5056446;28;20563;-81
2022/08/06 03:44:58;;;;;;;0.60;0.60;;;10.00;99.90;;;;;;5056416;28;20229;-81
2022/08/06 03:47:32;;;;;;;0.60;0.60;;;10.00;99.90;;;;;;5056562;28;20223;-80
2022/08/06 03:50:19;;;;;;;0.60;0.60;;;10.10;99.90;;;;;;5056567;28;20208;-80
2022/08/06 03:53:01;;;;;;;0.60;0.60;;;10.10;99.90;;;;;;5056533;28;20197;-80
2022/08/06 03:55:31;;;;;;;0.50;0.50;;;10.10;99.90;;;;;;5057521;28;20487;-81
2022/08/06 03:58:02;;;;;;;0.50;0.50;;;10.10;99.90;;;;;;5056463;28;20284;-80
2022/08/06 04:00:33;;;;;;;0.60;0.60;;;10.10;99.90;;;;;;5056340;28;20708;-80
2022/08/06 04:03:02;;;;;;;0.70;0.70;;;10.10;99.90;;;;;;5056428;28;20544;-81
2022/08/06 04:05:30;;;;;;;0.50;0.50;;;10.20;99.90;;;;;;5052887;28;20233;-80
2022/08/06 04:08:15;;;;;;;0.60;0.60;;;10.20;99.90;;;;;;5037866;28;20202;-80
2022/08/06 04:10:49;;;;;;;0.60;0.60;;;10.10;99.90;;;;;;5036217;28;20202;-80
2022/08/06 04:13:17;;;;;;;0.57;0.57;;;10.10;99.90;;;;;;5036356;28;20198;-81
2022/08/06 04:15:43;;;;;;;0.52;0.52;;;10.10;99.90;;;;;;5037491;28;20190;-80
2022/08/06 04:18:12;;;;;;;0.60;0.60;;;10.10;99.90;;;;;;5036393;28;20595;-80
2022/08/06 04:20:45;;;;;;;0.50;0.50;;;10.20;99.90;;;;;;5037395;28;20194;-80
2022/08/06 04:23:12;;;;;;;0.60;0.60;;;10.20;99.90;;;;;;5038764;28;20214;-83
2022/08/06 04:25:44;;;;;;;0.50;0.50;;;10.20;99.90;;;;;;5056172;28;20240;-80
2022/08/06 04:28:12;;;;;;;0.60;0.60;;;10.20;99.90;;;;;;5049970;28;20664;-80
2022/08/06 04:30:39;;;;;;;0.70;0.70;;;10.20;99.90;;;;;;5056144;28;20607;-80
2022/08/06 04:33:11;;;;;;;0.60;0.60;;;10.30;99.90;;;;;;5057611;28;20259;-80
2022/08/06 04:35:40;;;;;;;0.80;0.80;;;10.30;99.90;;;;;;5057252;28;20998;-80
2022/08/06 04:38:07;;;;;;;0.60;0.60;;;10.30;99.90;;;;;;5073070;28;20221;-80
2022/08/06 04:40:33;;;;;;;0.70;0.70;;;10.40;99.90;;;;;;5052600;28;20732;-80
2022/08/06 04:42:59;;;;;;;0.50;0.50;;;10.50;99.90;;;;;;5054381;28;20200;-80
2022/08/06 04:45:26;;;;;;;0.60;0.60;;;10.60;99.90;;;;;;5052698;28;20221;-80
2022/08/06 04:47:52;;;;;;;0.50;0.50;;;10.70;99.90;;;;;;5052916;28;20533;-80
2022/08/06 04:50:18;;;;;;;0.50;0.50;;;10.70;99.90;;;;;;5054004;28;20284;-81
2022/08/06 04:52:44;;;;;;;0.60;0.60;;;10.80;99.90;;;;;;5052830;28;20202;-80
2022/08/06 04:55:10;;;;;;;0.60;0.60;;;10.90;99.90;;;;;;5053791;28;20213;-80
2022/08/06 04:57:36;;;;;;;1.05;0.95;;;11.00;99.90;;;;;;5052592;28;20221;-80
2022/08/06 05:00:03;;;;;;;0.60;0.60;;;11.10;99.90;;;;;;5052760;28;20190;-80
2022/08/06 05:02:29;;;;;;;0.50;0.50;;;11.10;99.90;;;;;;5053481;28;20246;-80
2022/08/06 05:04:57;;;;;;;0.50;0.50;;;11.20;99.90;;;;;;5052614;28;20647;-80
2022/08/06 05:07:28;;;;;;;0.50;0.50;;;11.30;99.90;;;;;;5052510;28;20297;-80
2022/08/06 05:09:56;;;;;;;0.60;0.60;;;11.50;99.90;;;;;;5054100;28;20232;-80
2022/08/06 05:12:27;;;;;;;0.57;0.57;;;11.60;99.90;;;;;;5052332;28;20204;-81
2022/08/06 05:14:58;;;;;;;0.60;0.60;;;11.70;99.90;;;;;;5052477;28;20577;-81
2022/08/06 05:17:33;;;;;;;0.50;0.50;;;11.70;99.90;;;;;;5052360;28;20681;-80
2022/08/06 05:20:04;;;;;;;0.50;0.50;;;11.90;99.90;;;;;;5052385;28;20227;-80
2022/08/06 05:22:32;;;;;;;0.50;0.50;;;12.00;99.90;;;;;;5051887;28;20205;-80
2022/08/06 05:24:58;;;;;;;0.50;0.50;;;12.00;99.90;;;;;;5069092;28;20203;-80
2022/08/06 05:27:24;;;;;;;0.60;0.60;;;12.10;99.90;;;;;;5065516;28;20202;-81
2022/08/06 05:29:50;;;;;;;0.50;0.50;;;12.10;99.90;;;;;;5052208;28;20201;-80
2022/08/06 05:32:19;;;;;;;0.55;0.55;;;12.20;99.90;;;;;;5052136;28;20210;-80
2022/08/06 05:34:46;;;;;;;0.50;0.50;;;12.30;99.90;;;;;;5052044;28;20625;-81
2022/08/06 05:37:12;;;;;;;0.50;0.50;;;12.30;99.90;;;;;;5052037;28;20687;-81
2022/08/06 05:39:38;;;;;;;0.50;0.50;;;12.40;99.90;;;;;;5053143;28;20193;-81
2022/08/06 05:42:03;;;;;;;0.45;0.45;;;12.40;99.90;;;;;;5051984;28;20284;-80
2022/08/06 05:44:29;;;;;;;0.40;0.40;;;12.50;99.90;;;;;;5052909;28;20707;-80
2022/08/06 05:47:02;;;;;;;0.50;0.50;;;12.50;99.90;;;;;;5051912;28;20206;-81
2022/08/06 05:49:35;;;;;;;0.50;0.50;;;12.70;99.90;;;;;;5051768;28;20212;-81
2022/08/06 05:52:26;;;;;;;0.50;0.50;;;12.80;99.90;;;;;;5051647;28;20198;-81
2022/08/06 05:54:59;;;;;;;0.50;0.50;;;12.90;99.90;;;;;;5044403;28;20762;-81
2022/08/06 05:57:35;;;;;;;0.40;0.40;;;12.80;99.90;;;;;;5048160;28;20777;-80
2022/08/06 06:00:10;;;;;;;0.50;0.50;;;13.00;99.90;;;;;;5032928;28;20222;-80
2022/08/06 06:02:39;;;;;;;0.43;0.43;;;13.10;99.90;;;;;;5031445;28;20263;-80
2022/08/06 06:05:06;;;;;;;0.50;0.50;;;13.20;99.90;;;;;;5031685;28;20209;-80
2022/08/06 06:07:32;;;;;;;0.60;0.60;;;13.40;99.90;;;;;;5031501;28;20661;-81
2022/08/06 06:09:58;;;;;;;0.40;0.40;;;13.50;99.90;;;;;;5031748;28;20205;-81
2022/08/06 06:12:25;;;;;;;0.40;0.40;;;13.50;99.90;;;;;;5031284;28;20206;-81
2022/08/06 06:14:51;;;;;;;0.50;0.50;;;13.60;99.90;;;;;;5031444;28;20206;-80
2022/08/06 06:17:35;;;;;;;0.50;0.50;;;13.70;99.90;;;;;;5046020;28;20233;-80
2022/08/06 06:20:39;;;;;;;0.40;0.40;;;13.80;99.90;;;;;;5059300;28;20193;-80
2022/08/06 06:23:42;;;;;;;0.40;0.40;;;13.90;99.90;;;;;;5070565;28;20210;-80
2022/08/06 06:26:21;;;;;;;0.40;0.40;;;13.80;99.90;;;;;;5053031;28;20262;-80
2022/08/06 06:29:25;;;;;;;0.50;0.50;;;13.80;99.90;;;;;;5053235;28;20205;-81
2022/08/06 06:32:13;;;;;;;0.40;0.40;;;13.90;99.90;;;;;;5030974;28;20278;-80
2022/08/06 06:34:51;;;;;;;0.47;0.47;;;14.00;99.90;;;;;;5051985;28;20209;-79
2022/08/06 06:37:32;;;;;;;0.40;0.40;;;14.20;99.90;;;;;;5052208;28;20648;-80
2022/08/06 06:40:06;;;;;;;0.40;0.40;;;14.20;99.90;;;;;;5052274;28;20239;-79
2022/08/06 06:42:42;;;;;;;4.28;0.85;;;14.20;99.90;;;;;;5050549;28;20232;-80
2022/08/06 06:45:32;;;;;;;0.32;0.32;;;14.30;99.90;;;;;;5050704;28;20228;-80
2022/08/06 06:48:07;;;;;;;0.50;0.50;;;14.50;99.90;;;;;;5050734;28;20202;-80
2022/08/06 06:50:39;;;;;;;0.40;0.40;;;14.70;99.90;;;;;;5050527;28;20220;-81
2022/08/06 06:53:06;;;;;;;0.40;0.40;;;15.10;99.90;;;;;;5051913;28;20225;-81
2022/08/06 06:55:51;;;;;;;0.68;0.68;;;15.40;99.90;;;;;;5050270;28;20303;-81
2022/08/06 06:58:28;;;;;;;0.40;0.40;;;15.40;99.90;;;;;;5050723;28;20198;-80
2022/08/06 07:00:56;;;;;;;0.40;0.40;;;15.50;99.90;;;;;;5050602;28;20204;-80
2022/08/06 07:03:24;;;;;;;0.40;0.40;;;15.20;99.90;;;;;;5049943;28;20255;-81
2022/08/06 07:05:51;;;;;;;0.45;0.45;;;15.10;99.90;;;;;;5051687;28;20189;-80
2022/08/06 07:08:21;;;;;;;0.98;0.77;;;15.00;99.90;;;;;;5050466;28;20660;-81
2022/08/06 07:10:48;;;;;;;0.40;0.40;;;14.90;99.90;;;;;;5051634;28;20189;-80
2022/08/06 07:13:15;;;;;;;0.40;0.40;;;14.90;99.90;;;;;;5050418;28;20202;-81
2022/08/06 07:15:42;;;;;;;0.35;0.35;;;15.10;99.90;;;;;;5050049;28;20217;-81
2022/08/06 07:18:09;;;;;;;0.38;0.38;;;15.40;99.90;;;;;;5051563;28;20204;-81
2022/08/06 07:20:36;;;;;;;0.30;0.30;;;15.50;99.90;;;;;;5049877;28;20654;-81
2022/08/06 07:23:06;;;;;;;0.70;0.68;;;15.60;99.90;;;;;;5050303;28;20194;-81
2022/08/06 07:25:37;;;;;;;0.40;0.40;;;15.90;99.90;;;;;;5050013;28;20201;-81
2022/08/06 07:28:04;;;;;;;0.30;0.30;;;16.10;99.90;;;;;;5050031;28;20751;-81
2022/08/06 07:30:30;;;;;;;0.50;0.50;;;16.20;99.90;;;;;;5050057;28;20248;-80
2022/08/06 07:32:56;;;;;;;0.30;0.30;;;16.30;99.90;;;;;;5050156;28;20672;-80
2022/08/06 07:35:22;;;;;;;0.30;0.30;;;16.50;99.90;;;;;;5049877;28;20304;-81
2022/08/06 07:37:55;;;;;;;0.40;0.40;;;16.60;99.90;;;;;;5051465;28;20613;-80
2022/08/06 07:40:37;;;;;;;0.40;0.40;;;16.70;99.90;;;;;;5049916;28;20201;-81
2022/08/06 07:43:13;;;;;;;0.30;0.30;;;16.80;99.90;;;;;;5050169;28;20683;-81
2022/08/06 07:45:39;;;;;;;0.35;0.35;;;16.90;99.90;;;;;;5050120;28;20209;-80
2022/08/06 07:48:11;;;;;;;0.30;0.30;;;17.10;99.90;;;;;;5050263;28;20242;-81
2022/08/06 07:50:39;;;;;;;0.40;0.40;;;17.20;99.90;;;;;;5050995;28;20202;-81
2022/08/06 07:53:05;;;;;;;0.20;0.20;;;17.30;99.90;;;;;;5049813;28;20197;-80
2022/08/06 07:55:32;;;;;;;0.30;0.30;;;17.50;99.90;;;;;;5050968;28;20623;-80
2022/08/06 07:58:00;;;;;;;0.30;0.30;;;17.50;99.90;;;;;;5050148;28;20669;-81
2022/08/06 08:00:26;;;;;;;0.95;0.63;;;17.70;99.90;;;;;;5052009;28;20597;-81
2022/08/06 08:08:25;;;;;;;0.20;0.20;;;17.40;99.90;;;;;;5050923;28;20273;-80
2022/08/06 08:10:53;;;;;;;0.30;0.30;;;17.40;99.90;;;;;;5051053;28;20194;-80
2022/08/06 08:13:21;;;;;;;0.30;0.30;;;17.40;99.90;;;;;;5049609;28;20205;-80
2022/08/06 08:15:48;;;;;;;0.38;0.38;;;17.70;99.90;;;;;;5051757;28;20244;-80
2022/08/06 08:18:14;;;;;;;0.30;0.30;;;17.80;99.90;;;;;;5053614;28;20688;-80
2022/08/06 08:20:42;;;;;;;0.30;0.30;;;17.70;99.90;;;;;;5053334;28;20228;-80
2022/08/06 08:23:11;;;;;;;0.38;0.38;;;17.60;99.90;;;;;;5054672;28;20567;-80
2022/08/06 08:25:38;;;;;;;0.20;0.20;;;18.00;99.90;;;;;;5054404;28;20285;-81
2022/08/06 08:28:05;;;;;;;0.28;0.28;;;18.40;99.90;;;;;;5042679;28;20238;-80
2022/08/06 08:30:30;;;;;;;0.30;0.30;;;18.40;99.90;;;;;;5033056;28;20202;-80
2022/08/06 08:32:56;;;;;;;0.30;0.30;;;18.30;99.90;;;;;;5033347;28;20293;-81
2022/08/06 08:35:22;;;;;;;0.30;0.30;;;18.20;99.90;;;;;;5033283;28;20241;-83
2022/08/06 08:37:48;;;;;;;0.30;0.30;;;18.40;99.90;;;;;;5033332;28;20247;-79
2022/08/06 08:40:13;;;;;;;0.32;0.32;;;18.60;99.90;;;;;;5033245;28;20198;-81
2022/08/06 08:42:48;;;;;;;0.20;0.20;;;18.70;99.90;;;;;;5032962;28;20582;-82
2022/08/06 08:45:15;;;;;;;0.20;0.20;;;18.70;99.90;;;;;;5032906;28;20577;-82
2022/08/06 08:47:45;;;;;;;0.30;0.30;;;18.90;99.90;;;;;;5032802;28;20237;-81
2022/08/06 08:50:11;;;;;;;0.30;0.30;;;19.00;99.90;;;;;;5049038;28;20565;-79
2022/08/06 08:52:43;;;;;;;0.20;0.20;;;19.10;99.90;;;;;;5052769;28;20197;-80
2022/08/06 08:55:12;;;;;;;0.30;0.30;;;19.00;99.90;;;;;;5053911;28;20251;-80
2022/08/06 08:57:38;;;;;;;0.30;0.30;;;19.20;99.90;;;;;;5052756;28;21181;-80
2022/08/06 09:00:06;;;;;;;0.20;0.20;;;19.40;99.90;;;;;;5052733;28;20255;-80
2022/08/06 09:02:32;;;;;;;0.35;0.35;;;19.70;99.90;;;;;;5052336;28;20197;-80
2022/08/06 09:04:59;;;;;;;0.25;0.25;;;20.00;99.90;;;;;;5052702;28;20197;-80
2022/08/06 09:07:26;;;;;;;0.20;0.20;;;20.00;99.90;;;;;;5052337;28;20224;-80
2022/08/06 09:09:52;;;;;;;0.20;0.20;;;20.10;99.90;;;;;;5049306;28;20737;-80
2022/08/06 09:12:19;;;;;;;0.20;0.20;;;20.30;99.90;;;;;;5032596;28;20432;-80
2022/08/06 09:14:46;;;;;;;0.20;0.20;;;20.50;99.90;;;;;;5032546;28;20213;-80
2022/08/06 09:17:12;;;;;;;0.30;0.30;;;20.50;99.90;;;;;;5032657;28;20293;-80
2022/08/06 09:19:38;;;;;;;0.20;0.20;;;20.10;99.90;;;;;;5033505;28;20783;-80
2022/08/06 09:22:04;;;;;;;0.20;0.20;;;20.10;99.90;;;;;;5032388;28;20194;-80
2022/08/06 09:24:30;;;;;;;0.20;0.20;;;20.00;99.90;;;;;;5032321;28;20619;-80
2022/08/06 09:27:10;;;;;;;0.20;0.20;;;20.10;99.90;;;;;;5034206;28;20440;-80
2022/08/06 09:29:51;;;;;;;0.20;0.20;;;20.30;99.90;;;;;;5052156;28;20553;-80
2022/08/06 09:32:56;;;;;;;0.20;0.20;;;20.50;99.90;;;;;;5052210;28;20682;-81
2022/08/06 09:35:29;;;;;;;0.20;0.20;;;20.80;99.90;;;;;;5050600;28;20213;-81
2022/08/06 09:38:03;;;;;;;0.20;0.20;;;21.40;99.90;;;;;;5051092;28;20684;-80
2022/08/06 09:40:28;;;;;;;0.20;0.20;;;21.40;99.90;;;;;;5050380;28;20252;-80
2022/08/06 09:42:54;;;;;;;0.25;0.25;;;21.30;99.90;;;;;;5050775;28;20272;-80
2022/08/06 09:45:22;;;;;;;0.25;0.25;;;21.20;99.90;;;;;;5050411;28;20252;-80
2022/08/06 09:47:59;;;;;;;0.20;0.20;;;21.00;99.90;;;;;;5033874;28;20247;-80
2022/08/06 09:50:44;;;;;;;1.55;0.68;;;20.90;99.90;;;;;;5033682;28;20208;-80
2022/08/06 09:53:12;;;;;;;0.22;0.22;;;21.10;99.90;;;;;;5050507;28;20215;-80
2022/08/06 09:55:38;;;;;;;0.30;0.30;;;20.70;99.90;;;;;;5033708;28;20312;-80
2022/08/06 09:58:04;;;;;;;0.30;0.30;;;20.80;99.90;;;;;;5033925;28;20759;-80
2022/08/06 10:00:35;;;;;;;1.50;0.43;;;21.00;99.90;;;;;;5033776;28;20782;-81
2022/08/06 10:03:04;;;;;;;0.20;0.20;;;21.40;99.90;;;;;;5050438;28;20202;-80
2022/08/06 10:05:31;;;;;;;0.20;0.20;;;21.80;99.90;;;;;;5061531;28;20201;-80
2022/08/06 10:08:05;;;;;;;0.20;0.20;;;22.00;99.90;;;;;;5071811;28;20207;-79
2022/08/06 10:10:51;;;;;;;0.20;0.20;;;22.10;99.90;;;;;;5071141;28;20196;-80
2022/08/06 10:13:26;;;;;;;0.20;0.20;;;22.40;99.90;;;;;;5070971;28;20296;-80
2022/08/06 10:15:57;;;;;;;0.20;0.20;;;22.20;99.90;;;;;;5072443;28;20571;-80
2022/08/06 10:18:41;;;;;;;0.17;0.17;;;22.20;99.90;;;;;;5072339;28;20318;-85
2022/08/06 10:21:15;;;;;;;0.20;0.20;;;22.30;99.90;;;;;;5071238;28;20224;-79
2022/08/06 10:23:43;;;;;;;0.20;0.20;;;22.40;99.90;;;;;;5071174;28;20291;-80
2022/08/06 10:26:11;;;;;;;0.20;0.20;;;22.40;99.90;;;;;;5071081;28;20246;-79
2022/08/06 10:28:40;;;;;;;0.20;0.20;;;22.20;99.90;;;;;;5054317;28;20197;-80
2022/08/06 10:31:09;;;;;;;1.00;0.47;;;22.40;99.90;;;;;;5052275;28;20250;-80
2022/08/06 10:33:54;;;;;;;0.20;0.20;;;22.40;99.90;;;;;;5050779;28;20762;-80
2022/08/06 10:36:30;;;;;;;0.30;0.30;;;22.50;99.90;;;;;;5050737;28;20189;-79
2022/08/06 10:38:57;;;;;;;0.22;0.22;;;23.00;99.90;;;;;;5051335;28;20209;-80
2022/08/06 10:41:26;;;;;;;0.20;0.20;;;23.50;99.90;;;;;;5050682;28;20664;-80
2022/08/06 10:43:55;;;;;;;0.20;0.20;;;23.40;99.90;;;;;;5050563;28;20228;-80
2022/08/06 10:46:22;;;;;;;0.30;0.30;;;23.10;99.90;;;;;;5050476;28;20232;-80
2022/08/06 10:48:49;;;;;;;0.17;0.17;;;23.40;99.90;;;;;;5067434;28;20197;-80
2022/08/06 10:51:15;;;;;;;0.20;0.20;;;23.50;99.90;;;;;;5051912;28;20198;-80
2022/08/06 10:53:45;;;;;;;0.63;0.38;;;23.50;99.90;;;;;;5051690;28;20227;-80
2022/08/06 10:56:15;;;;;;;0.00;0.00;;;23.10;99.90;;;;;;5050642;28;20208;-80
2022/08/06 10:58:42;;;;;;;0.00;0.00;;;23.20;99.90;;;;;;5050418;28;20383;-80
2022/08/06 11:01:17;;;;;;;0.10;0.10;;;23.60;99.90;;;;;;5046998;28;20194;-80
2022/08/06 11:04:04;;;;;;;0.22;0.20;;;22.70;99.90;;;;;;5031864;28;20693;-80
2022/08/06 11:06:50;;;;;;;0.10;0.10;;;22.40;99.90;;;;;;5030429;28;20201;-80
2022/08/06 11:09:52;;;;;;;0.28;0.20;;;22.80;99.90;;;;;;5030578;28;20208;-80
2022/08/06 11:12:28;;;;;;;0.00;0.00;;;22.50;99.30;;;;;;5030558;28;20257;-80
2022/08/06 11:14:55;;;;;;;0.08;0.08;;;22.50;99.90;;;;;;5030301;28;20219;-80
2022/08/06 11:17:21;;;;;;;0.00;0.00;;;22.80;99.70;;;;;;5030303;28;20202;-80
2022/08/06 11:19:48;;;;;;;0.00;0.00;;;23.10;99.10;;;;;;5046825;28;20747;-81
2022/08/06 11:22:37;;;;;;;0.00;0.00;;;22.60;99.90;;;;;;5030777;28;20256;-80
2022/08/06 11:25:06;;;;;;;0.00;0.00;;;22.30;99.90;;;;;;5030501;28;20287;-80
2022/08/06 11:27:49;;;;;;;0.00;0.00;;;21.90;99.90;;;;;;5037472;28;20197;-81
2022/08/06 11:30:16;;;;;;;0.00;0.00;;;22.10;99.00;;;;;;5050149;28;20205;-81
2022/08/06 11:32:50;;;;;;;0.17;0.17;;;22.10;99.90;;;;;;5051386;28;20243;-80
2022/08/06 11:35:34;;;;;;;0.00;0.00;;;22.50;98.90;;;;;;5049986;28;20290;-80
2022/08/06 11:38:00;;;;;;;0.00;0.00;;;22.90;99.90;;;;;;5049843;28;20664;-80
2022/08/06 11:40:26;;;;;;;0.22;0.20;;;23.20;97.60;;;;;;5049600;28;20193;-81
2022/08/06 11:42:52;;;;;;;0.00;0.00;;;22.60;98.20;;;;;;5049891;28;20612;-83
2022/08/06 11:45:18;;;;;;;0.00;0.00;;;22.80;99.60;;;;;;5049733;28;20767;-82
2022/08/06 11:48:03;;;;;;;0.13;0.13;;;23.50;99.90;;;;;;5050153;28;20238;-80
2022/08/06 11:50:29;;;;;;;0.10;0.10;;;24.00;95.80;;;;;;5053213;28;20208;-80
2022/08/06 11:52:55;;;;;;;0.00;0.00;;;23.20;96.70;;;;;;5054249;28;20197;-80
2022/08/06 11:55:21;;;;;;;0.00;0.00;;;22.80;98.20;;;;;;5053783;28;20217;-80
2022/08/06 11:57:48;;;;;;;0.00;0.00;;;22.40;98.10;;;;;;5048164;28;20700;-80
2022/08/06 12:00:17;;;;;;;0.00;0.00;;;21.90;98.60;;;;;;5037249;28;20750;-80
2022/08/06 12:02:53;;;;;;;0.10;0.10;;;21.80;99.60;;;;;;5034136;28;20194;-80
2022/08/06 12:05:19;;;;;;;0.10;0.10;;;21.90;99.90;;;;;;5035155;28;20197;-80
2022/08/06 12:08:06;;;;;;;0.10;0.10;;;22.30;99.80;;;;;;5033833;28;20205;-80
2022/08/06 12:10:31;;;;;;;0.05;0.05;;;22.30;98.40;;;;;;5034707;28;20202;-80
2022/08/06 12:12:57;;;;;;;0.00;0.00;;;22.40;98.70;;;;;;5034087;28;20189;-80
2022/08/06 12:15:26;;;;;;;0.00;0.00;;;22.80;97.30;;;;;;5033495;28;20218;-80
2022/08/06 12:17:55;;;;;;;0.28;0.13;;;22.90;99.10;;;;;;5033647;28;20277;-81
2022/08/06 12:20:38;;;;;;;0.00;0.00;;;23.30;95.60;;;;;;5033418;28;20578;-81
2022/08/06 12:23:09;;;;;;;0.00;0.00;;;23.60;98.40;;;;;;5033597;28;20194;-79
2022/08/06 12:25:46;;;;;;;0.10;0.10;;;23.50;95.90;;;;;;5033223;28;20669;-80
2022/08/06 12:28:14;;;;;;;0.00;0.00;;;22.90;96.40;;;;;;5046013;28;20205;-81
2022/08/06 12:30:45;;;;;;;0.00;0.00;;;22.70;96.00;;;;;;5054256;28;20304;-79
2022/08/06 12:33:12;;;;;;;0.00;0.00;;;22.30;93.80;;;;;;5053324;28;20251;-80
2022/08/06 12:36:00;;;;;;;0.05;0.05;;;22.50;96.70;;;;;;5049603;28;20221;-80
2022/08/06 12:38:29;;;;;;;0.00;0.00;;;22.90;96.10;;;;;;5033381;28;20198;-80
2022/08/06 12:41:08;;;;;;;0.00;0.00;;;22.90;94.00;;;;;;5034660;28;20590;-79
2022/08/06 12:43:36;;;;;;;0.00;0.00;;;23.00;95.70;;;;;;5033176;28;20233;-79
2022/08/06 12:46:07;;;;;;;0.10;0.10;;;23.40;94.70;;;;;;5033093;28;20225;-79
2022/08/06 12:48:35;;;;;;;0.00;0.00;;;23.10;93.50;;;;;;5034267;28;20587;-80
2022/08/06 12:51:06;;;;;;;0.00;0.00;;;22.90;94.60;;;;;;5033005;28;20683;-79
2022/08/06 12:53:32;;;;;;;0.10;0.10;;;23.00;97.00;;;;;;5042717;28;20192;-79
2022/08/06 12:55:58;;;;;;;0.10;0.10;;;23.10;92.50;;;;;;5072942;28;20293;-79
2022/08/06 12:58:31;;;;;;;0.00;0.00;;;23.00;92.50;;;;;;5074278;28;20242;-79
2022/08/06 13:01:00;;;;;;;0.13;0.13;;;22.90;93.50;;;;;;5055878;28;20217;-79
2022/08/06 13:03:27;;;;;;;0.10;0.10;;;22.60;95.80;;;;;;5032819;28;20285;-79
2022/08/06 13:05:55;;;;;;;0.10;0.10;;;22.40;95.20;;;;;;5034194;28;20749;-79
2022/08/06 13:08:21;;;;;;;0.32;0.20;;;22.30;94.10;;;;;;5032604;28;20692;-79
2022/08/06 13:10:52;;;;;;;0.20;0.20;;;22.00;94.90;;;;;;5049346;28;20195;-79
2022/08/06 13:13:18;;;;;;;0.20;0.20;;;21.70;93.60;;;;;;5034203;28;20197;-79